Baltimore, MD

9:19 PM EST on February 07, 2016 (GMT -0500)
Charles Village | | Change Station
CLOSE
Current Station
Personal Weather Station
Location: Baltimore, MD
Elevation: 220 ft
Nearby Weather Stations

Elev 220 ft 39.32 °N, 76.62 °W | Updated 7 seconds ago

Mostly Cloudy
Mostly Cloudy
39.9 °F
Feels Like 36 °F
N
5.3
Wind Variable Wind from North
Gusts 8.7 mph

Today
High -- | Low -- °F
--% Chance of Precip.
Yesterday
High -- | Low -- °F
Precip. -- in
Pressure 29.93 in
Visibility 10.0 miles
Clouds Mostly Cloudy 23000 ft
Windchill 36 °F
Dew Point 18 °F
Humidity 41%
Rainfall 0.00 in
Snow Depth Not available.
7:08 AM 5:33 PM
Waning Crescent, 0% visible
METAR KBWI 080154Z 35005KT 10SM BKN230 04/M06 A2992 RMK AO2 SLP133 T00391056
Pressure 29.93 in
Visibility 10.0 miles
Clouds Mostly Cloudy 23000 ft
Windchill 36 °F
Dew Point 18 °F
Humidity 41%
Rainfall 0.00 in
Snow Depth Not available.
7:08 AM 5:33 PM
Waning Crescent, 0% visible
METAR KBWI 080154Z 35005KT 10SM BKN230 04/M06 A2992 RMK AO2 SLP133 T00391056

10-Day Weather Forecast

Almanac

Astronomy

Feb. 07, 2016 Rise Set
Actual Time
Civil Twilight
Nautical Twilight
Astronomical Twilight
Moon
Length of Visible Light
Length of Day
Tomorrow will be .
, % of the Moon is Illuminated

Today's Extremes

State Highs State Lows

Community

WunderPhotos

Upload Photos

1,891,364 photos uploaded!

WunderBlog® & News

Nearby

Air Quality

  Air Quality AQ Index Pollutant
Not available.

Snow Depth

Station Depth Elevation

Earthquake Activity

City Distance Mag. Time & Date
Minimum magnitude displayed is 2.5.

Coastal Water Temperatures

Place Temperature

Stations

Nearby Weather Stations

Station Location Temp. Windchill Dew Point Humidity Wind Precip. Elev Updated Type
                   

Watches & Warnings

There are currently no watches in effect.